sensor_id;sensor_type;location;lat;lon;timestamp;pressure;altitude;pressure_sealevel;temperature;humidity
16690;BME280;8458;52.220;9.884;2023-04-03T00:01:50;102311.22;;;3.16;72.03
16690;BME280;8458;52.220;9.884;2023-04-03T00:04:17;102311.06;;;3.09;72.37
16690;BME280;8458;52.220;9.884;2023-04-03T00:06:43;102322.38;;;3.06;72.46
16690;BME280;8458;52.220;9.884;2023-04-03T00:09:10;102323.94;;;3.09;72.57
16690;BME280;8458;52.220;9.884;2023-04-03T00:11:38;102317.41;;;3.10;72.59
16690;BME280;8458;52.220;9.884;2023-04-03T00:14:04;102324.44;;;3.12;72.78
16690;BME280;8458;52.220;9.884;2023-04-03T00:16:30;102321.50;;;3.14;72.58
16690;BME280;8458;52.220;9.884;2023-04-03T00:18:57;102317.94;;;3.13;72.41
16690;BME280;8458;52.220;9.884;2023-04-03T00:21:23;102321.50;;;3.14;72.25
16690;BME280;8458;52.220;9.884;2023-04-03T00:23:51;102322.19;;;3.16;72.11
16690;BME280;8458;52.220;9.884;2023-04-03T00:26:17;102330.22;;;3.17;71.90
16690;BME280;8458;52.220;9.884;2023-04-03T00:28:45;102335.22;;;3.14;71.82
16690;BME280;8458;52.220;9.884;2023-04-03T00:31:14;102346.03;;;3.07;72.17
16690;BME280;8458;52.220;9.884;2023-04-03T00:33:41;102336.97;;;2.98;72.08
16690;BME280;8458;52.220;9.884;2023-04-03T00:36:08;102338.34;;;3.02;71.97
16690;BME280;8458;52.220;9.884;2023-04-03T00:38:35;102345.34;;;2.97;72.48
16690;BME280;8458;52.220;9.884;2023-04-03T00:41:02;102341.78;;;2.96;72.64
16690;BME280;8458;52.220;9.884;2023-04-03T00:43:29;102350.66;;;2.98;72.42
16690;BME280;8458;52.220;9.884;2023-04-03T00:45:57;102346.19;;;2.97;72.39
16690;BME280;8458;52.220;9.884;2023-04-03T00:48:27;102357.50;;;2.94;72.40
16690;BME280;8458;52.220;9.884;2023-04-03T00:50:55;102355.81;;;2.93;72.59
16690;BME280;8458;52.220;9.884;2023-04-03T00:53:25;102350.69;;;2.90;72.49
16690;BME280;8458;52.220;9.884;2023-04-03T00:55:52;102356.84;;;2.92;72.51
16690;BME280;8458;52.220;9.884;2023-04-03T00:58:25;102352.38;;;2.91;72.43
16690;BME280;8458;52.220;9.884;2023-04-03T01:00:55;102359.09;;;2.89;72.48
16690;BME280;8458;52.220;9.884;2023-04-03T01:03:24;102350.34;;;2.77;72.39
16690;BME280;8458;52.220;9.884;2023-04-03T01:05:51;102353.59;;;2.80;72.51
16690;BME280;8458;52.220;9.884;2023-04-03T01:08:17;102351.72;;;2.81;72.50
16690;BME280;8458;52.220;9.884;2023-04-03T01:10:44;102351.72;;;2.81;72.50
16690;BME280;8458;52.220;9.884;2023-04-03T01:13:19;102346.25;;;2.81;72.30
16690;BME280;8458;52.220;9.884;2023-04-03T01:15:46;102360.63;;;2.75;72.59
16690;BME280;8458;52.220;9.884;2023-04-03T01:18:12;102353.25;;;2.75;72.48
16690;BME280;8458;52.220;9.884;2023-04-03T01:20:57;102350.69;;;2.74;72.80
16690;BME280;8458;52.220;9.884;2023-04-03T01:23:41;102350.88;;;2.64;73.06
16690;BME280;8458;52.220;9.884;2023-04-03T01:26:09;102366.81;;;2.60;72.86
16690;BME280;8458;52.220;9.884;2023-04-03T01:28:37;102361.66;;;2.57;73.32
16690;BME280;8458;52.220;9.884;2023-04-03T01:31:10;102366.28;;;2.57;73.33
16690;BME280;8458;52.220;9.884;2023-04-03T01:33:41;102367.50;;;2.54;73.16
16690;BME280;8458;52.220;9.884;2023-04-03T01:36:09;102360.97;;;2.47;73.50
16690;BME280;8458;52.220;9.884;2023-04-03T01:38:36;102364.72;;;2.46;73.51
16690;BME280;8458;52.220;9.884;2023-04-03T01:41:02;102362.16;;;2.44;73.50
16690;BME280;8458;52.220;9.884;2023-04-03T01:43:28;102357.72;;;2.43;73.84
16690;BME280;8458;52.220;9.884;2023-04-03T01:45:55;102370.91;;;2.48;73.64
16690;BME280;8458;52.220;9.884;2023-04-03T01:48:21;102373.66;;;2.48;73.75
16690;BME280;8458;52.220;9.884;2023-04-03T01:50:49;102370.19;;;2.46;73.60
16690;BME280;8458;52.220;9.884;2023-04-03T01:53:16;102372.94;;;2.46;73.47
16690;BME280;8458;52.220;9.884;2023-04-03T01:55:42;102372.59;;;2.41;73.66
16690;BME280;8458;52.220;9.884;2023-04-03T01:58:09;102377.75;;;2.44;73.73
16690;BME280;8458;52.220;9.884;2023-04-03T02:00:35;102377.41;;;2.47;73.50
16690;BME280;8458;52.220;9.884;2023-04-03T02:03:02;102379.59;;;2.35;73.93
16690;BME280;8458;52.220;9.884;2023-04-03T02:05:29;102381.31;;;2.36;73.69
16690;BME280;8458;52.220;9.884;2023-04-03T02:07:57;102377.03;;;2.33;73.48
16690;BME280;8458;52.220;9.884;2023-04-03T02:10:23;102371.22;;;2.37;73.72
16690;BME280;8458;52.220;9.884;2023-04-03T02:12:50;102378.75;;;2.26;73.73
16690;BME280;8458;52.220;9.884;2023-04-03T02:15:16;102383.34;;;2.26;73.78
16690;BME280;8458;52.220;9.884;2023-04-03T02:17:43;102376.00;;;2.26;74.07
16690;BME280;8458;52.220;9.884;2023-04-03T02:20:10;102385.25;;;2.25;73.70
16690;BME280;8458;52.220;9.884;2023-04-03T02:22:37;102375.13;;;2.26;74.06
16690;BME280;8458;52.220;9.884;2023-04-03T02:25:06;102376.00;;;2.26;74.01
16690;BME280;8458;52.220;9.884;2023-04-03T02:27:32;102376.81;;;2.10;74.06
16690;BME280;8458;52.220;9.884;2023-04-03T02:29:59;102379.06;;;2.15;74.30
16690;BME280;8458;52.220;9.884;2023-04-03T02:32:25;102370.16;;;2.13;74.33
16690;BME280;8458;52.220;9.884;2023-04-03T02:34:52;102385.19;;;2.09;74.56
16690;BME280;8458;52.220;9.884;2023-04-03T02:37:18;102385.75;;;2.12;74.66
16690;BME280;8458;52.220;9.884;2023-04-03T02:39:45;102382.47;;;2.09;74.64
16690;BME280;8458;52.220;9.884;2023-04-03T02:42:12;102380.06;;;2.06;74.84
16690;BME280;8458;52.220;9.884;2023-04-03T02:44:39;102377.31;;;1.97;74.70
16690;BME280;8458;52.220;9.884;2023-04-03T02:47:06;102386.53;;;1.96;74.96
16690;BME280;8458;52.220;9.884;2023-04-03T02:49:32;102385.88;;;2.03;74.71
16690;BME280;8458;52.220;9.884;2023-04-03T02:51:59;102385.50;;;1.97;74.79
16690;BME280;8458;52.220;9.884;2023-04-03T02:54:25;102391.34;;;2.03;74.54
16690;BME280;8458;52.220;9.884;2023-04-03T02:56:55;102384.84;;;1.95;75.25
16690;BME280;8458;52.220;9.884;2023-04-03T02:59:23;102387.56;;;1.95;74.92
16690;BME280;8458;52.220;9.884;2023-04-03T03:01:49;102390.31;;;1.95;74.77
16690;BME280;8458;52.220;9.884;2023-04-03T03:04:16;102383.78;;;1.88;75.22
16690;BME280;8458;52.220;9.884;2023-04-03T03:06:42;102392.66;;;1.90;74.98
16690;BME280;8458;52.220;9.884;2023-04-03T03:09:09;102392.16;;;1.87;74.87
16690;BME280;8458;52.220;9.884;2023-04-03T03:11:35;102395.91;;;1.86;74.98
16690;BME280;8458;52.220;9.884;2023-04-03T03:14:02;102393.66;;;1.81;75.20
16690;BME280;8458;52.220;9.884;2023-04-03T03:16:30;102398.09;;;1.74;75.02
16690;BME280;8458;52.220;9.884;2023-04-03T03:18:56;102402.03;;;1.79;75.26
16690;BME280;8458;52.220;9.884;2023-04-03T03:21:23;102404.94;;;1.78;75.16
16690;BME280;8458;52.220;9.884;2023-04-03T03:23:49;102402.34;;;1.76;75.44
16690;BME280;8458;52.220;9.884;2023-04-03T03:26:16;102406.41;;;1.64;75.01
16690;BME280;8458;52.220;9.884;2023-04-03T03:28:42;102420.56;;;1.59;75.13
16690;BME280;8458;52.220;9.884;2023-04-03T03:31:09;102411.50;;;1.59;74.85
16690;BME280;8458;52.220;9.884;2023-04-03T03:33:37;102410.75;;;1.49;74.75
16690;BME280;8458;52.220;9.884;2023-04-03T03:36:04;102415.38;;;1.48;75.02
16690;BME280;8458;52.220;9.884;2023-04-03T03:38:31;102420.53;;;1.51;74.61
16690;BME280;8458;52.220;9.884;2023-04-03T03:40:58;102415.38;;;1.48;75.09
16690;BME280;8458;52.220;9.884;2023-04-03T03:43:24;102421.88;;;1.47;74.74
16690;BME280;8458;52.220;9.884;2023-04-03T03:45:52;102411.41;;;1.42;74.31
16690;BME280;8458;52.220;9.884;2023-04-03T03:48:19;102418.44;;;1.45;73.85
16690;BME280;8458;52.220;9.884;2023-04-03T03:50:48;102422.50;;;1.41;74.13
16690;BME280;8458;52.220;9.884;2023-04-03T03:53:14;102421.50;;;1.42;73.83
16690;BME280;8458;52.220;9.884;2023-04-03T03:55:41;102425.72;;;1.36;74.58
16690;BME280;8458;52.220;9.884;2023-04-03T03:58:08;102425.91;;;1.35;75.20
16690;BME280;8458;52.220;9.884;2023-04-03T04:00:34;102429.66;;;1.34;75.22
16690;BME280;8458;52.220;9.884;2023-04-03T04:03:01;102431.16;;;1.28;76.22
16690;BME280;8458;52.220;9.884;2023-04-03T04:05:27;102424.31;;;1.24;76.19
16690;BME280;8458;52.220;9.884;2023-04-03T04:07:55;102429.13;;;1.30;76.30
16690;BME280;8458;52.220;9.884;2023-04-03T04:10:22;102428.59;;;1.27;76.72
16690;BME280;8458;52.220;9.884;2023-04-03T04:12:48;102426.34;;;1.22;77.14
16690;BME280;8458;52.220;9.884;2023-04-03T04:15:16;102426.16;;;1.23;77.22
16690;BME280;8458;52.220;9.884;2023-04-03T04:17:43;102424.53;;;1.31;77.37
16690;BME280;8458;52.220;9.884;2023-04-03T04:20:10;102426.56;;;1.29;77.27
16690;BME280;8458;52.220;9.884;2023-04-03T04:22:37;102425.03;;;1.34;77.40
16690;BME280;8458;52.220;9.884;2023-04-03T04:25:06;102415.97;;;1.25;77.02
16690;BME280;8458;52.220;9.884;2023-04-03T04:27:32;102417.31;;;1.30;76.97
16690;BME280;8458;52.220;9.884;2023-04-03T04:29:59;102431.03;;;1.38;76.87
16690;BME280;8458;52.220;9.884;2023-04-03T04:32:25;102428.13;;;1.39;76.91
16690;BME280;8458;52.220;9.884;2023-04-03T04:34:52;102430.50;;;1.34;77.14
16690;BME280;8458;52.220;9.884;2023-04-03T04:37:18;102427.09;;;1.32;77.17
16690;BME280;8458;52.220;9.884;2023-04-03T04:39:45;102438.19;;;1.31;77.30
16690;BME280;8458;52.220;9.884;2023-04-03T04:42:12;102431.91;;;1.38;77.38
16690;BME280;8458;52.220;9.884;2023-04-03T04:44:40;102432.75;;;1.39;77.36
16690;BME280;8458;52.220;9.884;2023-04-03T04:47:06;102431.34;;;1.35;77.49
16690;BME280;8458;52.220;9.884;2023-04-03T04:49:33;102437.50;;;1.29;77.44
16690;BME280;8458;52.220;9.884;2023-04-03T04:51:59;102439.19;;;1.30;77.36
16690;BME280;8458;52.220;9.884;2023-04-03T04:54:26;102440.41;;;1.27;77.00
16690;BME280;8458;52.220;9.884;2023-04-03T04:56:52;102444.28;;;1.24;76.63
16690;BME280;8458;52.220;9.884;2023-04-03T04:59:20;102445.63;;;1.20;76.53
16690;BME280;8458;52.220;9.884;2023-04-03T05:01:46;102445.09;;;1.17;76.03
16690;BME280;8458;52.220;9.884;2023-04-03T05:04:13;102446.22;;;1.06;75.39
16690;BME280;8458;52.220;9.884;2023-04-03T05:06:40;102447.53;;;1.02;75.84
16690;BME280;8458;52.220;9.884;2023-04-03T05:09:07;102453.94;;;0.93;75.47
16690;BME280;8458;52.220;9.884;2023-04-03T05:11:34;102448.41;;;0.84;75.79
16690;BME280;8458;52.220;9.884;2023-04-03T05:14:00;102450.78;;;0.79;75.98
16690;BME280;8458;52.220;9.884;2023-04-03T05:16:28;102449.06;;;0.78;76.61
16690;BME280;8458;52.220;9.884;2023-04-03T05:18:55;102453.81;;;0.76;76.46
16690;BME280;8458;52.220;9.884;2023-04-03T05:21:21;102453.81;;;0.76;77.11
16690;BME280;8458;52.220;9.884;2023-04-03T05:23:50;102463.72;;;0.77;77.43
16690;BME280;8458;52.220;9.884;2023-04-03T05:26:16;102463.81;;;0.85;77.29
16690;BME280;8458;52.220;9.884;2023-04-03T05:28:42;102464.97;;;0.83;77.30
16690;BME280;8458;52.220;9.884;2023-04-03T05:31:09;102468.06;;;0.88;77.09
16690;BME280;8458;52.220;9.884;2023-04-03T05:33:37;102472.38;;;0.91;77.19
16690;BME280;8458;52.220;9.884;2023-04-03T05:36:05;102478.84;;;0.89;77.32
16690;BME280;8458;52.220;9.884;2023-04-03T05:38:32;102479.94;;;0.97;77.31
16690;BME280;8458;52.220;9.884;2023-04-03T05:40:58;102480.41;;;1.10;78.00
16690;BME280;8458;52.220;9.884;2023-04-03T05:43:25;102488.03;;;1.06;77.83
16690;BME280;8458;52.220;9.884;2023-04-03T05:45:52;102490.38;;;1.19;77.94
16690;BME280;8458;52.220;9.884;2023-04-03T05:48:18;102492.09;;;1.20;78.21
16690;BME280;8458;52.220;9.884;2023-04-03T05:50:47;102495.69;;;1.21;78.23
16690;BME280;8458;52.220;9.884;2023-04-03T05:53:17;102503.75;;;1.22;78.82
16690;BME280;8458;52.220;9.884;2023-04-03T05:55:45;102501.75;;;1.33;78.76
16690;BME280;8458;52.220;9.884;2023-04-03T05:58:11;102501.28;;;1.37;78.77
16690;BME280;8458;52.220;9.884;2023-04-03T06:00:38;102508.78;;;1.35;78.99
16690;BME280;8458;52.220;9.884;2023-04-03T06:03:05;102507.59;;;1.38;79.50
16690;BME280;8458;52.220;9.884;2023-04-03T06:05:32;102509.00;;;1.42;79.65
16690;BME280;8458;52.220;9.884;2023-04-03T06:08:01;102511.78;;;1.50;79.78
16690;BME280;8458;52.220;9.884;2023-04-03T06:10:28;102514.91;;;1.55;80.17
16690;BME280;8458;52.220;9.884;2023-04-03T06:12:54;102515.66;;;1.66;80.01
16690;BME280;8458;52.220;9.884;2023-04-03T06:15:21;102520.31;;;1.73;79.53
16690;BME280;8458;52.220;9.884;2023-04-03T06:17:48;102518.97;;;1.77;79.60
16690;BME280;8458;52.220;9.884;2023-04-03T06:20:16;102532.00;;;1.84;79.41
16690;BME280;8458;52.220;9.884;2023-04-03T06:22:42;102524.97;;;1.81;79.60
16690;BME280;8458;52.220;9.884;2023-04-03T06:25:10;102527.28;;;1.94;79.83
16690;BME280;8458;52.220;9.884;2023-04-03T06:27:37;102526.81;;;1.99;79.95
16690;BME280;8458;52.220;9.884;2023-04-03T06:30:05;102525.81;;;2.08;79.77
16690;BME280;8458;52.220;9.884;2023-04-03T06:32:32;102532.88;;;2.19;79.57
16690;BME280;8458;52.220;9.884;2023-04-03T06:34:59;102534.09;;;2.24;79.08
16690;BME280;8458;52.220;9.884;2023-04-03T06:37:25;102534.47;;;2.29;79.26
16690;BME280;8458;52.220;9.884;2023-04-03T06:39:54;102542.38;;;2.41;79.03
16690;BME280;8458;52.220;9.884;2023-04-03T06:42:22;102534.19;;;2.49;77.74
16690;BME280;8458;52.220;9.884;2023-04-03T06:44:49;102545.84;;;2.51;77.58
16690;BME280;8458;52.220;9.884;2023-04-03T06:47:16;102545.47;;;2.46;77.29
16690;BME280;8458;52.220;9.884;2023-04-03T06:49:43;102542.03;;;2.36;76.64
16690;BME280;8458;52.220;9.884;2023-04-03T06:52:10;102540.97;;;2.28;76.66
16690;BME280;8458;52.220;9.884;2023-04-03T06:54:38;102541.47;;;2.24;76.81
16690;BME280;8458;52.220;9.884;2023-04-03T06:57:05;102557.03;;;2.23;77.75
16690;BME280;8458;52.220;9.884;2023-04-03T06:59:34;102552.75;;;2.29;77.43
16690;BME280;8458;52.220;9.884;2023-04-03T07:02:01;102555.50;;;2.29;77.69
16690;BME280;8458;52.220;9.884;2023-04-03T07:04:28;102563.22;;;2.33;77.75
16690;BME280;8458;52.220;9.884;2023-04-03T07:06:54;102567.72;;;2.43;78.21
16690;BME280;8458;52.220;9.884;2023-04-03T07:09:21;102570.19;;;2.54;78.24
16690;BME280;8458;52.220;9.884;2023-04-03T07:11:48;102573.94;;;2.61;77.88
16690;BME280;8458;52.220;9.884;2023-04-03T07:14:14;102569.72;;;2.75;77.80
16690;BME280;8458;52.220;9.884;2023-04-03T07:16:42;102571.13;;;2.87;77.31
16690;BME280;8458;52.220;9.884;2023-04-03T07:19:09;102579.88;;;2.99;76.62
16690;BME280;8458;52.220;9.884;2023-04-03T07:21:35;102578.16;;;3.07;75.86
16690;BME280;8458;52.220;9.884;2023-04-03T07:24:02;102580.22;;;3.13;75.11
16690;BME280;8458;52.220;9.884;2023-04-03T07:26:28;102576.13;;;3.17;75.29
16690;BME280;8458;52.220;9.884;2023-04-03T07:28:55;102581.63;;;3.25;75.17
16690;BME280;8458;52.220;9.884;2023-04-03T07:31:22;102583.34;;;3.34;74.84
16690;BME280;8458;52.220;9.884;2023-04-03T07:33:50;102584.38;;;3.41;74.66
16690;BME280;8458;52.220;9.884;2023-04-03T07:36:19;102584.19;;;3.51;74.84
16690;BME280;8458;52.220;9.884;2023-04-03T07:38:46;102583.34;;;3.59;74.04
16690;BME280;8458;52.220;9.884;2023-04-03T07:41:14;102584.41;;;3.58;74.58
16690;BME280;8458;52.220;9.884;2023-04-03T07:43:42;102590.03;;;3.73;74.08
16690;BME280;8458;52.220;9.884;2023-04-03T07:46:09;102582.13;;;3.86;74.24
16690;BME280;8458;52.220;9.884;2023-04-03T07:48:36;102580.59;;;3.92;73.18
16690;BME280;8458;52.220;9.884;2023-04-03T07:51:04;102569.25;;;3.95;72.70
16690;BME280;8458;52.220;9.884;2023-04-03T07:53:31;102584.31;;;3.99;73.03
16690;BME280;8458;52.220;9.884;2023-04-03T07:55:58;102576.94;;;4.00;72.30
16690;BME280;8458;52.220;9.884;2023-04-03T07:58:25;102577.13;;;4.06;72.39
16690;BME280;8458;52.220;9.884;2023-04-03T08:00:52;102579.84;;;4.15;71.74
16690;BME280;8458;52.220;9.884;2023-04-03T08:03:18;102572.78;;;4.20;71.43
16690;BME280;8458;52.220;9.884;2023-04-03T08:05:47;102576.53;;;4.27;71.28
16690;BME280;8458;52.220;9.884;2023-04-03T08:08:17;102570.50;;;4.32;71.31
16690;BME280;8458;52.220;9.884;2023-04-03T08:10:43;102577.72;;;4.33;71.53
16690;BME280;8458;52.220;9.884;2023-04-03T08:13:13;102578.88;;;4.47;71.29
16690;BME280;8458;52.220;9.884;2023-04-03T08:15:40;102576.06;;;4.55;71.91
16690;BME280;8458;52.220;9.884;2023-04-03T08:18:06;102587.19;;;4.70;72.26
16690;BME280;8458;52.220;9.884;2023-04-03T08:20:33;102577.13;;;4.85;71.99
16690;BME280;8458;52.220;9.884;2023-04-03T08:22:59;102578.97;;;4.93;71.18
16690;BME280;8458;52.220;9.884;2023-04-03T08:25:27;102576.06;;;5.18;69.65
16690;BME280;8458;52.220;9.884;2023-04-03T08:27:55;102570.31;;;5.28;69.27
16690;BME280;8458;52.220;9.884;2023-04-03T08:30:21;102573.97;;;5.43;68.19
16690;BME280;8458;52.220;9.884;2023-04-03T08:32:48;102569.75;;;5.55;68.45
16690;BME280;8458;52.220;9.884;2023-04-03T08:35:14;102570.03;;;5.61;67.51
16690;BME280;8458;52.220;9.884;2023-04-03T08:37:41;102572.94;;;5.82;67.20
16690;BME280;8458;52.220;9.884;2023-04-03T08:40:12;102563.44;;;5.85;64.49
16690;BME280;8458;52.220;9.884;2023-04-03T08:42:53;102572.28;;;5.80;64.65
16690;BME280;8458;52.220;9.884;2023-04-03T08:45:27;102568.16;;;5.76;62.56
16690;BME280;8458;52.220;9.884;2023-04-03T08:48:02;102574.78;;;5.67;62.69
16690;BME280;8458;52.220;9.884;2023-04-03T08:50:33;102562.47;;;5.63;63.20
16690;BME280;8458;52.220;9.884;2023-04-03T08:53:03;102563.13;;;5.65;63.38
16690;BME280;8458;52.220;9.884;2023-04-03T08:55:34;102562.56;;;5.69;64.69
16690;BME280;8458;52.220;9.884;2023-04-03T08:58:04;102566.34;;;5.68;63.90
16690;BME280;8458;52.220;9.884;2023-04-03T09:00:37;102558.03;;;5.77;63.65
16690;BME280;8458;52.220;9.884;2023-04-03T09:03:12;102566.56;;;5.82;62.12
16690;BME280;8458;52.220;9.884;2023-04-03T09:05:43;102560.41;;;5.95;60.89
16690;BME280;8458;52.220;9.884;2023-04-03T09:08:18;102555.91;;;6.02;61.37
16690;BME280;8458;52.220;9.884;2023-04-03T09:10:48;102562.63;;;5.99;61.62
16690;BME280;8458;52.220;9.884;2023-04-03T09:13:24;102554.66;;;6.19;62.25
16690;BME280;8458;52.220;9.884;2023-04-03T09:15:53;102556.09;;;6.45;59.29
16690;BME280;8458;52.220;9.884;2023-04-03T09:18:23;102552.84;;;6.56;58.39
16690;BME280;8458;52.220;9.884;2023-04-03T09:20:59;102546.09;;;6.59;59.03
16690;BME280;8458;52.220;9.884;2023-04-03T09:23:30;102557.66;;;6.69;57.90
16690;BME280;8458;52.220;9.884;2023-04-03T09:26:02;102554.47;;;6.87;55.22
16690;BME280;8458;52.220;9.884;2023-04-03T09:28:32;102555.81;;;6.91;53.55
16690;BME280;8458;52.220;9.884;2023-04-03T09:31:00;102555.41;;;6.94;55.02
16690;BME280;8458;52.220;9.884;2023-04-03T09:33:28;102550.41;;;7.05;55.28
16690;BME280;8458;52.220;9.884;2023-04-03T09:35:56;102545.84;;;7.12;54.30
16690;BME280;8458;52.220;9.884;2023-04-03T09:38:22;102544.91;;;7.05;53.55
16690;BME280;8458;52.220;9.884;2023-04-03T09:41:04;102544.00;;;7.19;54.08
16690;BME280;8458;52.220;9.884;2023-04-03T09:43:33;102537.75;;;7.10;53.64
16690;BME280;8458;52.220;9.884;2023-04-03T09:46:24;102541.53;;;7.09;52.70
16690;BME280;8458;52.220;9.884;2023-04-03T09:48:52;102544.78;;;6.91;54.20
16690;BME280;8458;52.220;9.884;2023-04-03T09:51:25;102537.00;;;6.80;54.14
16690;BME280;8458;52.220;9.884;2023-04-03T09:53:52;102532.72;;;6.77;52.96
16690;BME280;8458;52.220;9.884;2023-04-03T09:56:22;102526.97;;;6.57;53.78
16690;BME280;8458;52.220;9.884;2023-04-03T09:58:51;102534.28;;;6.65;53.70
16690;BME280;8458;52.220;9.884;2023-04-03T10:01:25;102532.06;;;6.39;53.47
16690;BME280;8458;52.220;9.884;2023-04-03T10:04:07;102523.97;;;6.52;53.70
16690;BME280;8458;52.220;9.884;2023-04-03T10:06:38;102518.91;;;6.56;53.93
16690;BME280;8458;52.220;9.884;2023-04-03T10:09:17;102518.25;;;6.54;51.58
16690;BME280;8458;52.220;9.884;2023-04-03T10:11:58;102521.59;;;6.71;51.35
16690;BME280;8458;52.220;9.884;2023-04-03T10:14:28;102511.06;;;6.74;51.17
16690;BME280;8458;52.220;9.884;2023-04-03T10:17:02;102512.38;;;6.78;50.53
16690;BME280;8458;52.220;9.884;2023-04-03T10:19:36;102518.38;;;6.82;50.65
16690;BME280;8458;52.220;9.884;2023-04-03T10:22:19;102512.56;;;6.77;50.09
16690;BME280;8458;52.220;9.884;2023-04-03T10:24:52;102505.47;;;6.89;49.81
16690;BME280;8458;52.220;9.884;2023-04-03T10:27:31;102493.34;;;7.05;49.86
16690;BME280;8458;52.220;9.884;2023-04-03T10:30:05;102496.91;;;6.99;48.87
16690;BME280;8458;52.220;9.884;2023-04-03T10:32:47;102487.50;;;6.93;48.15
16690;BME280;8458;52.220;9.884;2023-04-03T10:35:20;102494.34;;;6.97;49.05
16690;BME280;8458;52.220;9.884;2023-04-03T10:38:01;102494.75;;;6.94;48.45
16690;BME280;8458;52.220;9.884;2023-04-03T10:40:31;102499.50;;;6.86;48.56
16690;BME280;8458;52.220;9.884;2023-04-03T10:43:04;102495.44;;;6.81;47.80
16690;BME280;8458;52.220;9.884;2023-04-03T10:45:48;102500.09;;;6.81;49.02
16690;BME280;8458;52.220;9.884;2023-04-03T10:48:20;102488.69;;;6.84;49.06
16690;BME280;8458;52.220;9.884;2023-04-03T10:51:10;102491.56;;;6.76;49.09
16690;BME280;8458;52.220;9.884;2023-04-03T10:53:44;102490.63;;;6.69;48.15
16690;BME280;8458;52.220;9.884;2023-04-03T10:56:18;102487.22;;;6.67;49.51
16690;BME280;8458;52.220;9.884;2023-04-03T10:58:49;102488.13;;;6.52;49.67
16690;BME280;8458;52.220;9.884;2023-04-03T11:01:20;102493.34;;;6.47;49.91
16690;BME280;8458;52.220;9.884;2023-04-03T11:03:51;102490.59;;;6.47;49.76
16690;BME280;8458;52.220;9.884;2023-04-03T11:06:21;102483.66;;;6.51;49.41
16690;BME280;8458;52.220;9.884;2023-04-03T11:08:51;102488.22;;;6.44;49.48
16690;BME280;8458;52.220;9.884;2023-04-03T11:11:25;102478.78;;;6.53;50.42
16690;BME280;8458;52.220;9.884;2023-04-03T11:13:56;102475.25;;;6.59;50.60
16690;BME280;8458;52.220;9.884;2023-04-03T11:16:28;102474.25;;;6.45;50.03
16690;BME280;8458;52.220;9.884;2023-04-03T11:18:57;102472.63;;;6.51;50.56
16690;BME280;8458;52.220;9.884;2023-04-03T11:21:29;102469.63;;;6.68;49.99
16690;BME280;8458;52.220;9.884;2023-04-03T11:23:59;102480.38;;;6.62;49.53
16690;BME280;8458;52.220;9.884;2023-04-03T11:26:31;102463.44;;;6.66;50.62
16690;BME280;8458;52.220;9.884;2023-04-03T11:29:06;102464.00;;;6.76;50.03
16690;BME280;8458;52.220;9.884;2023-04-03T11:31:46;102460.25;;;6.84;49.81
16690;BME280;8458;52.220;9.884;2023-04-03T11:34:28;102457.53;;;6.69;50.11
16690;BME280;8458;52.220;9.884;2023-04-03T11:37:00;102458.00;;;6.72;49.60
16690;BME280;8458;52.220;9.884;2023-04-03T11:39:30;102459.50;;;6.53;48.00
16690;BME280;8458;52.220;9.884;2023-04-03T11:42:14;102450.13;;;6.69;49.43
16690;BME280;8458;52.220;9.884;2023-04-03T11:44:41;102456.38;;;6.78;49.31
16690;BME280;8458;52.220;9.884;2023-04-03T11:47:11;102447.34;;;6.69;50.29
16690;BME280;8458;52.220;9.884;2023-04-03T11:49:56;102450.84;;;6.78;49.30
16690;BME280;8458;52.220;9.884;2023-04-03T11:52:55;102446.97;;;6.72;49.05
16690;BME280;8458;52.220;9.884;2023-04-03T11:55:52;102444.41;;;6.71;49.36
16690;BME280;8458;52.220;9.884;2023-04-03T11:58:19;102436.81;;;6.73;49.45
16690;BME280;8458;52.220;9.884;2023-04-03T12:00:57;102433.00;;;6.74;49.33
16690;BME280;8458;52.220;9.884;2023-04-03T12:09:27;102440.38;;;6.88;48.33
16690;BME280;8458;52.220;9.884;2023-04-03T12:11:55;102443.13;;;6.88;47.99
16690;BME280;8458;52.220;9.884;2023-04-03T12:14:23;102436.34;;;6.91;48.50
16690;BME280;8458;52.220;9.884;2023-04-03T12:16:52;102437.69;;;7.02;48.76
16690;BME280;8458;52.220;9.884;2023-04-03T12:19:35;102429.28;;;7.31;47.81
16690;BME280;8458;52.220;9.884;2023-04-03T12:22:11;102429.75;;;7.42;47.96
16690;BME280;8458;52.220;9.884;2023-04-03T12:24:39;102426.50;;;7.60;48.28
16690;BME280;8458;52.220;9.884;2023-04-03T12:27:33;102413.94;;;7.92;48.01
16690;BME280;8458;52.220;9.884;2023-04-03T12:30:14;102418.63;;;7.98;47.50
16690;BME280;8458;52.220;9.884;2023-04-03T12:32:51;102423.34;;;8.04;46.49
16690;BME280;8458;52.220;9.884;2023-04-03T12:35:24;102419.47;;;7.99;45.46
16690;BME280;8458;52.220;9.884;2023-04-03T12:38:17;102413.84;;;7.79;45.80
16690;BME280;8458;52.220;9.884;2023-04-03T12:40:48;102414.66;;;7.72;45.65
16690;BME280;8458;52.220;9.884;2023-04-03T12:43:43;102411.84;;;7.59;45.36
16690;BME280;8458;52.220;9.884;2023-04-03T12:46:17;102415.25;;;7.61;46.94
16690;BME280;8458;52.220;9.884;2023-04-03T12:48:49;102406.22;;;7.81;47.24
16690;BME280;8458;52.220;9.884;2023-04-03T12:51:21;102403.31;;;7.96;46.61
16690;BME280;8458;52.220;9.884;2023-04-03T12:53:49;102400.97;;;7.99;45.58
16690;BME280;8458;52.220;9.884;2023-04-03T12:56:21;102395.72;;;8.11;45.70
16690;BME280;8458;52.220;9.884;2023-04-03T12:58:48;102396.16;;;8.15;45.27
16690;BME280;8458;52.220;9.884;2023-04-03T13:01:16;102390.81;;;8.00;45.85
16690;BME280;8458;52.220;9.884;2023-04-03T13:03:45;102382.06;;;7.96;45.17
16690;BME280;8458;52.220;9.884;2023-04-03T13:06:18;102387.22;;;8.13;45.25
16690;BME280;8458;52.220;9.884;2023-04-03T13:08:50;102371.13;;;8.23;45.59
16690;BME280;8458;52.220;9.884;2023-04-03T13:11:19;102380.50;;;8.35;45.33
16690;BME280;8458;52.220;9.884;2023-04-03T13:13:57;102373.53;;;8.46;44.73
16690;BME280;8458;52.220;9.884;2023-04-03T13:16:24;102377.19;;;8.60;44.98
16690;BME280;8458;52.220;9.884;2023-04-03T13:18:52;102366.50;;;8.50;43.93
16690;BME280;8458;52.220;9.884;2023-04-03T13:21:22;102368.97;;;8.25;44.82
16690;BME280;8458;52.220;9.884;2023-04-03T13:23:51;102369.66;;;8.40;45.35
16690;BME280;8458;52.220;9.884;2023-04-03T13:26:22;102365.66;;;8.50;44.85
16690;BME280;8458;52.220;9.884;2023-04-03T13:28:49;102365.63;;;8.43;44.96